Jepson Prairie Reserve, California Weather observations

Data are for 10 minute period ending at time listed.
 Day   Time   Solar   Ave.   Ave.  Ave.  Vector  Max.   Baro.   Total    
  of    of     Rad.   Air    Rel.  Wind   Wind   Wind  Press.  Precip.   
Year   Day            Temp.  Hum.  Speed  Dir.   Gust                    
2014   (PST)  Kw/m2    F      %     mph   deg.    mph    mb.     in.     
-------------------------------------------------------------------------
 323   19:10   0.00   50.4    97    8.9   340    11.4   1017.3    0.00 
 323   19:20   0.00   50.4    97    6.9   335     9.3   1017.3    0.00 
 323   19:30   0.00   50.4    97    8.3   328    10.5   1017.6    0.00 
 323   19:40   0.00   50.3    97    8.8   324    10.9   1017.6    0.00 
 323   19:50   0.00   50.2    97    8.7   324    10.7   1017.6    0.00 
 323   20:00   0.00   50.2    97    9.3   321    11.3   1018.0    0.00 
 323   20:10   0.00   50.2    97    9.2   320    12.2   1018.0    0.00 
 323   20:20   0.00   50.2    97    9.1   324    11.2   1018.0    0.00 
 323   20:30   0.00   50.1    97    8.9   332    11.1   1018.0    0.00 
 323   20:40   0.00   50.1    97    9.5   331    12.3   1018.0    0.00 
 323   20:50   0.00   50.1    97    7.7   334    10.4   1018.3    0.00 
 323   21:00   0.00   50.1    97    7.9   338    10.0   1018.3    0.00 
 323   21:10   0.00   50.1    97    8.1   339    10.7   1018.0    0.00 
 323   21:20   0.00   50.1    98    7.9   338     9.9   1018.0    0.00 
 323   21:30   0.00   50.1    98    7.1   330     9.1   1018.0    0.00 
 323   21:40   0.00   50.1    98    6.0   322     8.3   1018.0    0.00 
 323   21:50   0.00   50.1    98    6.4   314     8.5   1018.3    0.00 
 323   22:00   0.00   50.1    98    6.8   310     9.5   1018.6    0.00 
 323   22:10   0.00   50.1    98    6.9   318     9.3   1018.6    0.00 
 323   22:20   0.00   50.1    98    7.0   312     9.9   1018.6    0.00 
 323   22:30   0.00   50.2    98    5.8   308     8.0   1018.6    0.00 
 323   22:40   0.00   50.1    98    5.5   305     6.9   1018.3    0.00 
 323   22:50   0.00   50.1    97    4.9   302     6.3   1018.3    0.00 
 323   23:00   0.00   50.2    97    5.1   296     6.1   1018.3    0.00 
 323   23:10   0.00   50.4    97    5.4   296     6.8   1018.3    0.00 
 323   23:20   0.00   50.5    97    4.7   299     6.6   1018.3    0.00 
 323   23:30   0.00   50.5    97    4.6   305     7.0   1018.3    0.00 
 323   23:40   0.00   50.6    96    4.1   298     5.8   1018.6    0.00 
 323   23:50   0.00   50.6    96    4.3   300     6.6   1018.6    0.00 
 324    0:00   0.00   50.7    96    4.1   324     5.6   1018.3    0.00 
 324    0:10   0.00   50.8    96    3.0   332     4.2   1018.3    0.00 
 324    0:20   0.00   50.8    96    3.1   318     3.9   1018.0    0.00 
 324    0:30   0.00   50.8    96    3.1   328     3.9   1018.0    0.00 
 324    0:40   0.00   50.8    96    3.4   346     4.5   1017.6    0.00 
 324    0:50   0.00   50.7    96    4.0   360     5.4   1017.6    0.00 
 324    1:00   0.00   50.7    96    3.6    13     4.5   1018.0    0.00 
 324    1:10   0.00   50.6    96    3.6   354     4.4   1018.0    0.00 
 324    1:20   0.00   50.6    96    4.1   334     5.9   1018.0    0.00 
 324    1:30   0.00   50.6    96    5.2   324     6.3   1018.3    0.00 
 324    1:40   0.00   50.7    96    4.3   335     5.7   1018.3    0.00 
 324    1:50   0.00   50.7    96    4.1   358     5.5   1018.0    0.00 
 324    2:00   0.00   50.7    96    3.1    26     4.4   1018.0    0.00 
 324    2:10   0.00   50.7    96    1.9   347     4.9   1018.0    0.00 
 324    2:20   0.00   50.6    96    4.0   347     5.9   1018.0    0.00 
 324    2:30   0.00   50.6    95    3.7   350     5.1   1017.6    0.00 
 324    2:40   0.00   50.6    95    4.0   321     5.4   1018.0    0.00 
 324    2:50   0.00   50.6    95    4.1   339     5.7   1017.6    0.00 
 324    3:00   0.00   50.7    95    4.2   311     5.8   1017.6    0.00 
 324    3:10   0.00   50.6    95    4.7   306     6.9   1017.6    0.00 
 324    3:20   0.00   50.7    95    3.4   322     4.2   1017.3    0.00 
 324    3:30   0.00   50.8    95    3.9   328     5.9   1017.3    0.00 
 324    3:40   0.00   50.7    95    4.5   317     5.8   1017.3    0.00 
 324    3:50   0.00   50.7    95    3.1   330     5.3   1017.3    0.00 
 324    4:00   0.00   50.8    94    2.1   302     3.2   1017.3    0.00 
 324    4:10   0.00   50.7    94    1.4   294     3.5   1017.3    0.00 
 324    4:20   0.00   50.7    93    3.5   322     5.0   1016.9    0.00 
 324    4:30   0.00   50.7    93    4.3   308     5.6   1017.3    0.00 
 324    4:40   0.00   50.7    92    5.5   302     7.4   1017.3    0.00 
 324    4:50   0.00   50.7    92    4.6   318     7.3   1017.3    0.00 
 324    5:00   0.00   50.6    92    3.6   332     5.2   1016.9    0.00 
 324    5:10   0.00   50.7    92    2.4   348     3.5   1016.9    0.00 
 324    5:20   0.00   50.7    92    2.0   337     2.9   1016.9    0.00 
 324    5:30   0.00   50.7    91    2.0   355     2.8   1016.9    0.00 
 324    5:40   0.00   50.7    91    1.0     1     2.0   1016.6    0.00 
 324    5:50   0.00   50.8    91    0.5   344     1.5   1016.9    0.00 
 324    6:00   0.00   50.8    91    0.5   345     1.7   1016.6    0.00 
 324    6:10   0.00   50.8    91    0.8    13     1.7   1016.6    0.00 
 324    6:20   0.00   50.8    91    1.6    21     2.5   1016.6    0.00 
 324    6:30   0.00   50.8    92    1.4     2     1.8   1016.6    0.00 
 324    6:40   0.00   50.8    92    1.8     9     2.6   1016.6    0.00 
 324    6:50   0.00   50.8    92    0.7    38     1.8   1016.6    0.00 
 324    7:00   0.01   51.0    92    0.2    32     1.1   1016.6    0.00 
 324    7:10   0.00   50.9    92    0.3    30     1.1   1016.6    0.00 
 324    7:20   0.01   51.0    92    0.0    28     0.4   1016.6    0.00 
 324    7:30   0.01   51.0    92    2.1   261     2.6   1016.9    0.00 
 324    7:40   0.01   50.9    92    1.7   279     2.1   1016.6    0.00 
 324    7:50   0.03   51.0    92    0.7   271     1.8   1016.6    0.00 
 324    8:00   0.04   51.1    92    1.4   340     2.3   1016.6    0.00 
 324    8:10   0.04   51.2    92    1.8   343     3.1   1016.9    0.00 
 324    8:20   0.06   51.3    91    2.3   336     3.1   1016.9    0.00 
 324    8:30   0.07   51.5    90    2.7   333     4.4   1016.9    0.00 
 324    8:40   0.07   51.5    90    3.5   311     4.7   1017.3    0.00 
 324    8:50   0.07   51.5    90    3.5   326     5.3   1016.9    0.00 
 324    9:00   0.07   51.6    90    4.2   336     6.0   1016.9    0.00 
 324    9:10   0.07   51.7    90    3.9   338     5.3   1017.3    0.00 
 324    9:20   0.07   51.9    89    4.1   319     5.5   1017.6    0.00 
 324    9:30   0.08   52.1    89    3.8   300     5.7   1017.6    0.00 
 324    9:40   0.08   52.4    88    3.3   296     5.5   1018.0    0.00 
 324    9:50   0.07   52.4    88    3.3   288     4.7   1018.0    0.00 
 324   10:00   0.12   52.6    87    3.2   296     4.6   1018.0    0.00 
 324   10:10   0.22   53.1    86    2.5   300     4.2   1018.0    0.00 
 324   10:20   0.19   53.7    85    2.5   320     4.4   1018.0    0.00 
 324   10:30   0.16   53.9    84    1.8   357     3.9   1017.6    0.00 
 324   10:40   0.14   54.0    84    2.6   341     5.0   1017.6    0.00 
 324   10:50   0.13   53.9    84    3.5   340     5.2   1017.3    0.00 
 324   11:00   0.11   54.0    84    3.1    20     5.3   1016.9    0.00 
 324   11:10   0.10   54.1    84    3.9    59     5.7   1016.6    0.00 
 324   11:20   0.08   54.1    85    5.1    92     7.7   1016.6    0.00 
 324   11:30   0.06   53.9    86    4.2   112     6.1   1016.9    0.00 
 324   11:40   0.07   53.8    86    2.9   104     4.2   1016.6    0.00 
 324   11:50   0.07   53.9    87    3.0   110     6.1   1016.6    0.00 
 324   12:00   0.07   53.5    89    5.9    89     7.5   1015.9    0.00 
 324   12:10   0.07   53.5    90    5.6    84     8.1   1015.9    0.00 
 324   12:20   0.05   53.4    90    7.2    86     9.2   1015.6    0.00 
 324   12:30   0.04   53.2    91    6.5    96     7.9   1015.6    0.00 
 324   12:40   0.04   53.0    91    5.3    96     9.1   1015.6    0.01 
 324   12:50   0.04   53.2    92    4.9   102     8.5   1015.9    0.01 
 324   13:00   0.03   53.1    93    3.9    88     5.8   1015.6    0.03 
 324   13:10   0.03   53.0    93    2.8    87     4.1   1015.9    0.01 
 324   13:20   0.04   53.1    94    0.3   107     1.4   1015.9    0.02 
 324   13:30   0.04   53.1    94    2.3   111     2.9   1015.9    0.03 
 324   13:40   0.04   53.0    94    5.2    90     8.2   1015.6    0.02 
 324   13:50   0.06   53.0    95    9.4    84    12.6   1014.9    0.00 
 324   14:00   0.06   52.9    96   13.3    97    17.8   1014.2    0.02 
 324   14:10   0.04   53.0    96   16.2   100    23.0   1013.9    0.00 
 324   14:20   0.05   52.8    96   20.4    90    27.0   1012.5    0.01 
 324   14:30   0.08   52.9    97   16.9    97    22.5   1012.9    0.00 
 324   14:40   0.09   53.4    96   13.6   113    20.5   1013.5    0.00 
 324   14:50   0.07   53.7    96   10.9   124    14.5   1013.9    0.00 
 324   15:00   0.06   54.0    96   12.1   125    15.5   1013.9    0.00 
 324   15:10   0.07   54.0    96   10.9   119    14.7   1013.9    0.00 
 324   15:20   0.07   54.3    96    8.3   119    10.9   1014.2    0.01 
 324   15:30   0.04   54.5    96    9.6   143    12.5   1014.2    0.00 
 324   15:40   0.05   54.5    96    9.0   140    12.1   1014.6    0.00 
 324   15:50   0.04   54.5    95    7.7   135    10.7   1014.6    0.00 
 324   16:00   0.03   54.5    95    6.7   133     8.6   1014.2    0.00 
 324   16:10   0.02   54.6    95    7.8   116     9.7   1014.2    0.00 
 324   16:20   0.01   54.5    95    7.9   125    11.8   1014.2    0.00 
 324   16:30   0.01   54.5    95    4.4   140     6.6   1014.6    0.00 
 324   16:40   0.01   54.5    95    3.8   129     5.7   1014.6    0.00 
 324   16:50   0.00   54.5    95    5.2   107     7.3   1014.2    0.00 
 324   17:00   0.00   54.4    95    3.5    89     5.7   1014.2    0.00 
 324   17:10   0.00   54.5    95    2.2   332     6.2   1014.6    0.00 
 324   17:20   0.00   54.5    95    5.8   286     6.7   1014.6    0.02 
 324   17:30   0.00   54.4    95    2.3   254     5.7   1014.6    0.15 
 324   17:40   0.00   54.0    94   10.2    84    15.5   1013.9    0.11 
 324   17:50   0.00   54.0    95   10.8    85    13.2   1013.9    0.01 
 324   18:00   0.00   53.9    96   11.5   100    14.4   1013.9    0.01 
 324   18:10   0.00   53.8    96    8.6    96    11.8   1013.9    0.00 
 324   18:20   0.00   53.6    96    7.8    95    10.0   1013.9    0.00 
 324   18:30   0.00   53.5    96    7.4    99     9.9   1013.9    0.00 
 324   18:40   0.00   53.3    97    5.1   104     7.2   1014.2    0.00 
 324   18:50   0.00   53.2    97    5.1   106     6.5   1013.9    0.00 
 324   19:00   0.00   53.4    97    5.8   102     7.6   1013.9    0.00 

Return to Jepson Prairie Reserve graphs page.


Western Regional Climate Center,wrcc@dri.edu